首页
METAR-TAF:

METAR-TAF

机场 :

Lancaster Airport

兰开斯特, 宾夕法尼亚州, 美国

纬度: 40-07-13N, 经度: 076-17-40W, 海拔: 123米

当前天气观测

该预报发布于29分钟前的04:53 UTC
风速7节,风向北转西北
温度 23°C
湿度 89%
气压 1012 hPa
能見度: 16.1公里
散云层高于6000英尺

METAR: KLNS 170453Z AUTO 34007KT 10SM SCT060 23/21 A2988 RMK AO2 SLP115 T02280211 402890189

时间: 01:22 (05:22 UTC)

预报

该预报发布于57分钟前的04:25 UTC
预报有效从17日的 04点(UTC)到 17日的 24点(UTC)
风速3节,风向多变
能見度: 6.4公里
散云层高于3500英尺
多云层高于10000英尺
小阵雨, 轻雾
从 17日的 1200点(UTC)
风速3节,风向北转西北
能見度: 10公里
多云层高于1500英尺
阴天层高于10000英尺
附近有阵雨
从 17日的 1800点(UTC)
风速3节,风向多变
能見度: 8.0公里
散云层高于1500英尺
阴天层高于2500英尺
小雨, 轻雾

TAF: KLNS 170425Z 1704/1724 VRB03KT 4SM -SHRA BR SCT035 BKN100 FM171200 33003KT P6SM VCSH BKN015 OVC100 FM171800 VRB03KT 5SM -RA BR SCT015 OVC025

超过4000个机场的气象观测和天气预报(METAR&TAF报告)。

可查询的气象台以黄色和红色小点在地图上表示。

将鼠标移到小点上方,可查看气象台名称。

然后点击查看天气观测和预报。

如需切换地图:点击带黑十字的绿色按钮放大地图;点击带横线的绿色按钮缩小地图;或者点击绿色箭头查看邻近地区的地图。


METAR-TAF: